Time;durP1;ratioP1;P1;durP2;ratioP2;P2;SDS_P1;SDS_P2;PMS_P1;PMS_P2;Temp;Humidity;BMP_temperature;BMP_pressure;BME280_temperature;BME280_humidity;BME280_pressure;Samples;Min_cycle;Max_cycle;Signal;HPM_P1;HPM_P2
2023/07/17 00:00:12;;;;;;;5.40;3.43;;;;;;;27.22;44.32;99698.25;5074492;28;20656;-69
2023/07/17 00:02:41;;;;;;;5.80;3.73;;;;;;;27.24;44.40;99699.56;5074692;28;20200;-69
2023/07/17 00:05:09;;;;;;;5.43;3.50;;;;;;;27.30;44.23;99697.56;5074584;28;20188;-70
2023/07/17 00:07:36;;;;;;;4.10;3.23;;;;;;;27.34;44.48;99701.31;5053889;28;20664;-69
2023/07/17 00:10:04;;;;;;;6.57;3.33;;;;;;;27.35;44.08;99702.91;5054586;28;20254;-70
2023/07/17 00:12:31;;;;;;;3.53;3.27;;;;;;;27.38;44.20;99710.50;5054685;28;20350;-70
2023/07/17 00:14:58;;;;;;;4.80;2.70;;;;;;;27.44;44.10;99707.38;5054572;28;20252;-71
2023/07/17 00:17:24;;;;;;;3.63;3.17;;;;;;;27.49;44.25;99707.31;5054082;28;20660;-71
2023/07/17 00:19:56;;;;;;;7.07;3.30;;;;;;;27.52;43.98;99697.72;5054126;28;20668;-71
2023/07/17 00:22:23;;;;;;;3.40;3.20;;;;;;;27.54;43.59;99709.94;5054172;28;20192;-70
2023/07/17 00:24:50;;;;;;;3.83;3.20;;;;;;;27.57;43.72;99711.25;5054350;28;20193;-71
2023/07/17 00:27:17;;;;;;;4.80;3.20;;;;;;;27.62;43.90;99705.69;5053854;28;20193;-71
2023/07/17 00:29:44;;;;;;;3.60;3.30;;;;;;;27.59;43.38;99701.66;5054041;28;20274;-70
2023/07/17 00:32:11;;;;;;;3.33;3.10;;;;;;;27.62;43.28;99708.44;5053985;28;20199;-70
2023/07/17 00:34:38;;;;;;;3.43;2.90;;;;;;;27.65;42.36;99713.28;5054023;28;20225;-71
2023/07/17 00:37:07;;;;;;;3.90;3.70;;;;;;;27.64;42.46;99717.16;5053609;28;20617;-70
2023/07/17 00:39:34;;;;;;;6.90;3.27;;;;;;;27.64;42.70;99717.16;5054224;28;20650;-70
2023/07/17 00:42:02;;;;;;;3.20;3.00;;;;;;;27.67;43.77;99716.53;5053577;28;20242;-71
2023/07/17 00:44:28;;;;;;;2.90;2.80;;;;;;;27.68;42.60;99720.88;5054106;28;20195;-71
2023/07/17 00:46:55;;;;;;;3.40;3.10;;;;;;;27.67;42.34;99721.97;5053872;28;20258;-71
2023/07/17 00:49:25;;;;;;;6.23;3.67;;;;;;;27.68;42.23;99726.34;5053882;28;20224;-71
2023/07/17 00:51:53;;;;;;;3.27;3.07;;;;;;;27.69;42.34;99719.78;5053324;28;20251;-71
2023/07/17 00:54:22;;;;;;;5.17;3.40;;;;;;;27.69;42.29;99722.50;5053712;28;20258;-71
2023/07/17 00:56:49;;;;;;;3.30;3.00;;;;;;;27.70;42.34;99721.38;5053335;28;20193;-71
2023/07/17 00:59:17;;;;;;;3.30;3.10;;;;;;;27.69;42.29;99722.50;5053281;28;20195;-71
2023/07/17 01:01:44;;;;;;;3.60;3.40;;;;;;;27.71;42.87;99725.72;5053748;28;20197;-71
2023/07/17 01:04:11;;;;;;;3.43;2.90;;;;;;;27.70;43.20;99721.38;5053234;28;20616;-71
2023/07/17 01:06:39;;;;;;;4.40;3.10;;;;;;;27.71;43.77;99721.09;5065708;28;20191;-71
2023/07/17 01:09:07;;;;;;;8.20;4.10;;;;;;;27.69;43.20;99723.28;5073329;28;20215;-70
2023/07/17 01:11:35;;;;;;;5.30;3.63;;;;;;;27.68;44.64;99721.69;5073094;28;20239;-70
2023/07/17 01:14:02;;;;;;;3.87;3.20;;;;;;;27.68;44.64;99718.16;5073200;28;20196;-70
2023/07/17 01:16:28;;;;;;;5.73;3.13;;;;;;;27.73;45.54;99715.31;5073434;28;20196;-70
2023/07/17 01:18:55;;;;;;;4.50;3.30;;;;;;;27.77;44.67;99719.06;5073096;28;20256;-70
2023/07/17 01:21:26;;;;;;;4.47;3.50;;;;;;;27.70;44.64;99715.91;5072747;28;20192;-70
2023/07/17 01:23:56;;;;;;;3.87;3.57;;;;;;;27.62;45.39;99724.81;5072953;28;20188;-70
2023/07/17 01:26:23;;;;;;;4.83;3.83;;;;;;;27.59;46.01;99722.66;5072992;28;20235;-70
2023/07/17 01:28:50;;;;;;;5.07;4.37;;;;;;;27.56;46.34;99720.56;5072872;28;20284;-70
2023/07/17 01:31:16;;;;;;;4.73;3.77;;;;;;;27.49;46.34;99720.97;5072548;28;20615;-70
2023/07/17 01:33:43;;;;;;;3.83;3.53;;;;;;;27.37;46.70;99711.63;5072452;28;20664;-70
2023/07/17 01:36:11;;;;;;;3.83;3.50;;;;;;;27.32;46.44;99719.91;5073099;28;20245;-70
2023/07/17 01:38:38;;;;;;;7.23;4.17;;;;;;;27.29;46.72;99723.22;5072505;28;20196;-70
2023/07/17 01:41:06;;;;;;;4.50;4.00;;;;;;;27.24;47.13;99721.38;5072473;28;20635;-70
2023/07/17 01:43:32;;;;;;;4.80;4.20;;;;;;;27.18;48.03;99717.13;5072516;28;20253;-70
2023/07/17 01:45:59;;;;;;;4.50;3.90;;;;;;;27.08;49.07;99708.28;5072448;28;20197;-70
2023/07/17 01:48:26;;;;;;;6.33;3.90;;;;;;;27.09;49.44;99720.81;5072512;28;20192;-70
2023/07/17 01:50:52;;;;;;;6.20;4.70;;;;;;;27.07;49.81;99723.03;5072582;28;20223;-70
2023/07/17 01:53:21;;;;;;;4.30;3.90;;;;;;;27.11;50.39;99715.88;5072440;28;20257;-70
2023/07/17 01:55:48;;;;;;;4.17;3.97;;;;;;;27.06;50.47;99713.22;5072075;28;20192;-70
2023/07/17 01:58:16;;;;;;;6.40;4.90;;;;;;;27.09;50.62;99713.44;5072216;28;20630;-70
2023/07/17 02:00:43;;;;;;;7.00;4.63;;;;;;;26.98;50.67;99714.72;5072738;28;20321;-70
2023/07/17 02:03:09;;;;;;;8.90;4.90;;;;;;;26.90;51.51;99711.88;5072270;28;20292;-70
2023/07/17 02:05:36;;;;;;;10.17;4.67;;;;;;;26.82;50.96;99721.50;5072329;28;20237;-71
2023/07/17 02:08:03;;;;;;;7.97;5.27;;;;;;;26.84;51.16;99719.31;5071917;28;20196;-70
2023/07/17 02:10:30;;;;;;;7.73;5.03;;;;;;;26.79;51.70;99716.66;5072224;28;20310;-70
2023/07/17 02:12:56;;;;;;;5.57;5.07;;;;;;;26.79;52.42;99713.13;5072206;28;20196;-70
2023/07/17 02:15:25;;;;;;;10.77;5.27;;;;;;;26.76;52.82;99716.44;5072135;28;20222;-70
2023/07/17 02:17:51;;;;;;;11.10;5.00;;;;;;;26.82;52.62;99715.28;5071262;28;20192;-69
2023/07/17 02:20:18;;;;;;;5.10;4.60;;;;;;;26.83;51.42;99716.88;5072251;28;20253;-69
2023/07/17 02:22:45;;;;;;;7.63;4.60;;;;;;;26.90;50.97;99717.34;5071738;28;20222;-69
2023/07/17 02:25:11;;;;;;;9.03;4.57;;;;;;;26.94;51.85;99713.69;5072268;28;20192;-69
2023/07/17 02:27:38;;;;;;;7.87;4.80;;;;;;;26.88;51.94;99714.06;5072148;28;20196;-69
2023/07/17 02:30:06;;;;;;;9.53;5.03;;;;;;;26.86;52.00;99717.09;5071584;28;20224;-69
2023/07/17 02:32:34;;;;;;;9.67;4.90;;;;;;;26.83;52.18;99722.34;5071940;28;20544;-69
2023/07/17 02:35:01;;;;;;;5.40;5.00;;;;;;;26.77;52.43;99712.59;5071273;28;20232;-69
2023/07/17 02:37:28;;;;;;;7.10;4.93;;;;;;;26.77;52.91;99718.06;5071529;28;20719;-70
2023/07/17 02:39:56;;;;;;;6.60;5.60;;;;;;;26.73;53.06;99712.41;5071305;28;20671;-69
2023/07/17 02:42:22;;;;;;;10.67;5.00;;;;;;;26.70;52.74;99712.19;5071628;28;20569;-68
2023/07/17 02:44:50;;;;;;;4.90;4.40;;;;;;;26.76;52.76;99714.53;5071626;28;20569;-68
2023/07/17 02:47:17;;;;;;;10.13;4.97;;;;;;;26.77;52.57;99718.06;5071435;28;20245;-69
2023/07/17 02:49:45;;;;;;;5.30;4.90;;;;;;;26.76;52.69;99721.91;5071727;28;20320;-69
2023/07/17 02:52:11;;;;;;;7.87;5.00;;;;;;;26.76;52.44;99722.72;5071788;28;20622;-71
2023/07/17 02:54:39;;;;;;;6.27;5.17;;;;;;;26.78;52.57;99719.69;5071868;28;20300;-71
2023/07/17 02:57:06;;;;;;;9.80;5.50;;;;;;;26.73;52.82;99717.03;5071787;28;20196;-71
2023/07/17 02:59:33;;;;;;;6.97;5.07;;;;;;;26.67;53.22;99723.66;5071282;28;20249;-71
2023/07/17 03:01:59;;;;;;;7.00;4.97;;;;;;;26.60;53.56;99717.78;5071312;28;20619;-70
2023/07/17 03:04:26;;;;;;;9.00;5.23;;;;;;;26.47;54.65;99719.31;5071227;28;20196;-71
2023/07/17 03:06:54;;;;;;;7.40;5.67;;;;;;;26.48;55.21;99725.53;5071434;28;20246;-70
2023/07/17 03:09:21;;;;;;;7.37;5.73;;;;;;;26.49;55.12;99719.81;5071473;28;20254;-70
2023/07/17 03:11:48;;;;;;;6.33;5.70;;;;;;;26.36;55.17;99706.09;5071390;28;20675;-69
2023/07/17 03:14:15;;;;;;;7.43;4.80;;;;;;;26.42;55.45;99724.00;5071398;28;20273;-69
2023/07/17 03:16:41;;;;;;;8.77;5.37;;;;;;;26.39;55.67;99728.13;5070960;28;20196;-69
2023/07/17 03:19:08;;;;;;;7.57;5.00;;;;;;;26.42;54.99;99732.19;5071488;28;20548;-70
2023/07/17 03:21:35;;;;;;;5.93;5.63;;;;;;;26.41;55.73;99730.56;5071687;28;20598;-70
2023/07/17 03:24:03;;;;;;;5.80;5.20;;;;;;;26.42;55.11;99732.97;5071344;28;20188;-69
2023/07/17 03:26:30;;;;;;;7.70;5.90;;;;;;;26.38;55.08;99742.03;5071561;28;20192;-69
2023/07/17 03:28:57;;;;;;;6.63;5.63;;;;;;;26.40;55.22;99737.09;5072318;28;20253;-70
2023/07/17 03:31:23;;;;;;;5.73;5.23;;;;;;;26.46;56.09;99738.66;5075017;28;20192;-71
2023/07/17 03:33:50;;;;;;;8.53;5.73;;;;;;;26.46;55.17;99733.22;5074616;28;20200;-71
2023/07/17 03:36:17;;;;;;;8.27;5.43;;;;;;;26.42;55.30;99743.88;5074802;28;20609;-71
2023/07/17 03:38:43;;;;;;;10.10;5.70;;;;;;;26.38;56.10;99739.31;5074982;28;20192;-71
2023/07/17 03:41:12;;;;;;;6.27;5.40;;;;;;;26.35;55.48;99745.34;5074745;28;20196;-71
2023/07/17 03:43:38;;;;;;;7.97;5.30;;;;;;;26.36;55.76;99742.34;5075071;28;20196;-71
2023/07/17 03:46:05;;;;;;;10.63;4.90;;;;;;;26.42;55.50;99743.88;5075179;28;20192;-71
2023/07/17 03:48:31;;;;;;;8.30;6.07;;;;;;;26.47;54.91;99740.28;5074804;28;20188;-71
2023/07/17 03:50:58;;;;;;;10.87;5.67;;;;;;;26.52;54.89;99737.47;5074389;28;20219;-71
2023/07/17 03:53:25;;;;;;;6.07;5.47;;;;;;;26.63;54.03;99755.34;5074741;28;20735;-71
2023/07/17 03:55:51;;;;;;;7.90;5.80;;;;;;;26.53;53.89;99756.25;5074868;28;20279;-71
2023/07/17 03:58:19;;;;;;;6.00;5.60;;;;;;;26.43;53.94;99761.03;5074546;28;20195;-71
2023/07/17 04:00:46;;;;;;;14.37;6.00;;;;;;;26.31;54.50;99768.81;5074359;28;20258;-71
2023/07/17 04:03:13;;;;;;;9.07;5.73;;;;;;;26.14;55.15;99760.31;5074529;28;20253;-71
2023/07/17 04:05:39;;;;;;;7.97;6.00;;;;;;;26.10;55.89;99771.00;5074453;28;20276;-71
2023/07/17 04:08:06;;;;;;;6.73;5.47;;;;;;;26.25;56.29;99764.56;5074537;28;20249;-71
2023/07/17 04:10:33;;;;;;;8.37;5.63;;;;;;;26.46;55.99;99761.25;5074479;28;20220;-71
2023/07/17 04:12:59;;;;;;;19.70;5.83;;;;;;;26.93;54.55;99768.53;5074177;28;20733;-72
2023/07/17 04:15:29;;;;;;;5.70;4.90;;;;;;;27.68;53.38;99780.94;5074403;28;20188;-71
2023/07/17 04:17:55;;;;;;;7.37;5.67;;;;;;;28.33;49.83;99782.41;5074211;28;20660;-71
2023/07/17 04:20:22;;;;;;;9.00;5.80;;;;;;;28.98;47.88;99779.06;5074489;28;20230;-71
2023/07/17 04:22:49;;;;;;;33.07;7.17;;;;;;;29.51;46.16;99784.63;5073740;28;20196;-72
2023/07/17 04:25:15;;;;;;;49.93;10.27;;;;;;;30.15;45.17;99784.03;5074026;28;20261;-71
2023/07/17 04:27:42;;;;;;;11.53;6.10;;;;;;;30.64;41.84;99797.41;5073732;28;20231;-71
2023/07/17 04:30:10;;;;;;;17.17;7.03;;;;;;;31.06;41.15;99807.63;5073985;28;20223;-71
2023/07/17 04:32:38;;;;;;;12.97;6.30;;;;;;;31.31;40.94;99790.38;5074109;28;20204;-71
2023/07/17 04:35:05;;;;;;;11.47;6.07;;;;;;;31.77;39.36;99792.41;5073830;28;20228;-71
2023/07/17 04:37:32;;;;;;;8.50;5.17;;;;;;;31.94;39.49;99790.44;5073671;28;20567;-70
2023/07/17 04:39:59;;;;;;;13.27;5.87;;;;;;;32.32;38.34;99799.50;5073921;28;20305;-70
2023/07/17 04:42:26;;;;;;;8.47;5.63;;;;;;;32.89;36.73;99808.88;5073824;28;20196;-71
2023/07/17 04:44:53;;;;;;;11.63;5.50;;;;;;;33.16;36.35;99811.06;5073712;28;20250;-70
2023/07/17 04:47:20;;;;;;;10.47;5.33;;;;;;;33.33;36.01;99813.69;5073505;28;20192;-70
2023/07/17 04:49:49;;;;;;;13.70;5.50;;;;;;;33.62;35.82;99806.47;5073533;28;20285;-70
2023/07/17 04:52:15;;;;;;;15.37;4.90;;;;;;;33.74;35.55;99806.50;5073654;28;20203;-71
2023/07/17 04:54:42;;;;;;;13.67;5.70;;;;;;;34.17;34.44;99809.59;5073614;28;20196;-70
2023/07/17 04:57:09;;;;;;;14.90;5.00;;;;;;;34.61;33.98;99811.44;5073610;28;20257;-70
2023/07/17 04:59:35;;;;;;;10.15;4.60;;;;;;;34.84;33.53;99807.06;5073329;28;20254;-69
2023/07/17 05:02:02;;;;;;;37.97;6.15;;;;;;;35.08;32.53;99815.28;5073405;28;20195;-70
2023/07/17 05:04:29;;;;;;;13.25;5.00;;;;;;;35.22;31.50;99813.75;5073340;28;20654;-71
2023/07/17 05:06:58;;;;;;;9.30;4.40;;;;;;;35.38;30.85;99814.63;5073513;28;20253;-71
2023/07/17 05:09:24;;;;;;;6.68;4.13;;;;;;;35.58;31.23;99819.16;5073290;28;20569;-70
2023/07/17 05:11:51;;;;;;;10.45;4.97;;;;;;;35.97;30.11;99820.22;5073297;28;20193;-70
2023/07/17 05:14:18;;;;;;;9.25;4.32;;;;;;;36.34;29.68;99818.81;5073336;28;20735;-71
2023/07/17 05:16:45;;;;;;;11.15;4.88;;;;;;;36.86;29.13;99819.25;5072611;28;20196;-67
2023/07/17 05:19:12;;;;;;;9.02;4.47;;;;;;;37.32;27.36;99823.06;5073357;28;20195;-68
2023/07/17 05:21:38;;;;;;;7.47;4.35;;;;;;;37.10;27.91;99819.00;5072586;28;20572;-67
2023/07/17 05:24:07;;;;;;;6.90;4.03;;;;;;;37.05;28.78;99822.06;5072591;28;20214;-68
2023/07/17 05:26:33;;;;;;;9.65;4.35;;;;;;;37.29;27.77;99813.50;5072569;28;20544;-68
2023/07/17 05:29:00;;;;;;;10.73;4.50;;;;;;;37.20;28.44;99813.72;5072722;28;20192;-69
2023/07/17 05:31:27;;;;;;;11.55;4.53;;;;;;;37.43;28.44;99813.78;5072621;28;20220;-69
2023/07/17 05:33:55;;;;;;;8.27;4.65;;;;;;;37.31;28.41;99819.47;5072756;28;20192;-69
2023/07/17 05:36:22;;;;;;;8.35;4.68;;;;;;;37.53;27.81;99813.19;5072409;28;20542;-69
2023/07/17 05:38:49;;;;;;;15.38;5.05;;;;;;;37.94;27.58;99812.41;5072569;28;20249;-71
2023/07/17 05:41:17;;;;;;;15.30;4.60;;;;;;;37.91;27.55;99802.03;5072762;28;20639;-71
2023/07/17 05:43:44;;;;;;;4.75;4.32;;;;;;;37.75;27.39;99809.69;5072052;28;20245;-70
2023/07/17 05:46:11;;;;;;;7.82;4.40;;;;;;;37.82;27.79;99809.81;5071949;28;20725;-71
2023/07/17 05:48:38;;;;;;;47.28;7.03;;;;;;;37.98;27.92;99813.28;5072028;28;20250;-70
2023/07/17 05:51:05;;;;;;;17.33;4.97;;;;;;;38.33;26.60;99802.00;5072383;28;20268;-71
2023/07/17 05:53:32;;;;;;;4.18;3.88;;;;;;;38.42;26.81;99806.13;5071660;28;20191;-70
2023/07/17 05:55:58;;;;;;;5.93;3.42;;;;;;;38.54;26.14;99814.25;5072104;28;20246;-70
2023/07/17 05:58:27;;;;;;;7.07;3.78;;;;;;;38.68;25.67;99811.69;5071975;28;20760;-70
2023/07/17 06:00:53;;;;;;;6.95;3.90;;;;;;;38.78;25.45;99813.81;5071928;28;20246;-70
2023/07/17 06:03:20;;;;;;;9.68;3.83;;;;;;;38.80;25.22;99805.91;5072419;28;20192;-70
2023/07/17 06:05:47;;;;;;;13.45;3.55;;;;;;;38.71;25.55;99813.72;5071779;28;20195;-70
2023/07/17 06:08:14;;;;;;;14.88;4.30;;;;;;;38.75;25.81;99809.03;5071947;28;20191;-70
2023/07/17 06:10:42;;;;;;;9.45;3.67;;;;;;;38.82;25.69;99802.75;5071702;28;20699;-70
2023/07/17 06:13:09;;;;;;;7.82;3.90;;;;;;;38.78;25.44;99794.34;5072043;28;20605;-70
2023/07/17 06:15:37;;;;;;;9.82;3.90;;;;;;;38.90;25.26;99802.50;5072147;28;20199;-70
2023/07/17 06:18:03;;;;;;;5.72;3.72;;;;;;;39.07;24.86;99804.69;5071804;28;20807;-70
2023/07/17 06:20:30;;;;;;;3.72;3.42;;;;;;;38.90;24.98;99799.72;5071745;28;20758;-70
2023/07/17 06:22:57;;;;;;;8.98;3.85;;;;;;;38.83;24.94;99798.81;5072089;28;20192;-69
2023/07/17 06:25:23;;;;;;;3.42;3.10;;;;;;;38.89;24.80;99797.28;5072016;28;20200;-70
2023/07/17 06:27:50;;;;;;;5.35;3.40;;;;;;;38.74;24.94;99793.50;5071980;28;20188;-70
2023/07/17 06:30:17;;;;;;;6.75;4.20;;;;;;;38.91;25.00;99795.75;5071741;28;20273;-69
2023/07/17 06:32:45;;;;;;;4.22;3.42;;;;;;;38.95;24.07;99796.59;5071922;28;20195;-70
2023/07/17 06:35:11;;;;;;;8.77;4.22;;;;;;;38.95;23.88;99795.81;5071347;28;20232;-70
2023/07/17 06:37:38;;;;;;;16.45;5.43;;;;;;;38.20;24.85;99786.72;5071760;28;20234;-69
2023/07/17 06:40:06;;;;;;;3.53;3.03;;;;;;;38.16;24.67;99786.63;5071819;28;20273;-70
2023/07/17 06:42:33;;;;;;;4.68;3.13;;;;;;;38.13;24.46;99784.59;5071249;28;20192;-69
2023/07/17 06:45:00;;;;;;;5.28;3.03;;;;;;;37.98;24.58;99776.38;5071729;28;20195;-69
2023/07/17 06:47:27;;;;;;;3.70;3.17;;;;;;;37.94;24.25;99778.31;5071687;28;20196;-69
2023/07/17 06:49:55;;;;;;;5.60;3.30;;;;;;;37.87;25.56;99776.22;5071706;28;20253;-70
2023/07/17 06:52:22;;;;;;;20.13;4.10;;;;;;;37.86;24.97;99771.84;5071339;28;20248;-69
2023/07/17 06:54:48;;;;;;;9.45;3.55;;;;;;;37.93;25.05;99771.97;5071502;28;20654;-69
2023/07/17 06:57:15;;;;;;;7.05;4.03;;;;;;;37.84;25.25;99768.63;5071119;28;20565;-70
2023/07/17 06:59:42;;;;;;;6.85;3.17;;;;;;;38.08;25.23;99768.28;5071691;28;20192;-69
2023/07/17 07:02:09;;;;;;;11.23;4.35;;;;;;;38.33;25.33;99769.47;5071541;28;20219;-70
2023/07/17 07:04:35;;;;;;;4.13;3.70;;;;;;;38.41;24.37;99771.16;5073640;28;20196;-70
2023/07/17 07:07:03;;;;;;;6.15;3.78;;;;;;;38.33;25.21;99758.34;5059350;28;20671;-69
2023/07/17 07:09:30;;;;;;;12.32;4.10;;;;;;;37.97;24.50;99764.50;5055361;28;20805;-69
2023/07/17 07:11:57;;;;;;;6.22;3.55;;;;;;;37.75;24.79;99748.66;5055276;28;20220;-70
2023/07/17 07:14:23;;;;;;;4.15;3.85;;;;;;;37.88;24.78;99758.38;5055794;28;20204;-69
2023/07/17 07:16:50;;;;;;;3.63;3.40;;;;;;;37.62;24.79;99760.28;5055271;28;20196;-69
2023/07/17 07:19:17;;;;;;;4.93;3.40;;;;;;;37.78;24.60;99756.25;5055568;28;20192;-70
2023/07/17 07:21:43;;;;;;;14.45;4.85;;;;;;;37.95;24.94;99758.50;5055023;28;20621;-69
2023/07/17 07:24:11;;;;;;;9.00;4.50;;;;;;;38.07;25.20;99744.47;5055492;28;20247;-69
2023/07/17 07:26:38;;;;;;;4.47;3.72;;;;;;;38.10;24.32;99742.91;5054933;28;20247;-69
2023/07/17 07:29:05;;;;;;;6.15;4.10;;;;;;;37.77;25.38;99737.19;5054791;28;20193;-70
2023/07/17 07:31:31;;;;;;;6.18;3.70;;;;;;;37.86;25.00;99735.78;5055195;28;20228;-69
2023/07/17 07:33:58;;;;;;;4.90;4.05;;;;;;;38.07;24.71;99735.34;5054931;28;20291;-70
2023/07/17 07:36:28;;;;;;;6.65;3.83;;;;;;;38.33;24.55;99736.16;5055145;28;20234;-70
2023/07/17 07:38:54;;;;;;;8.10;4.00;;;;;;;38.18;24.49;99734.34;5055161;28;20189;-69
2023/07/17 07:41:22;;;;;;;38.35;6.30;;;;;;;38.39;24.79;99729.09;5054856;28;20200;-71
2023/07/17 07:43:49;;;;;;;24.73;5.85;;;;;;;38.59;24.19;99727.84;5054981;28;20192;-70
2023/07/17 07:46:16;;;;;;;4.53;4.05;;;;;;;38.53;24.13;99734.88;5054486;28;20223;-71
2023/07/17 07:48:42;;;;;;;8.55;3.60;;;;;;;38.55;24.07;99727.00;5054958;28;20192;-69
2023/07/17 07:51:09;;;;;;;8.35;3.47;;;;;;;38.47;24.64;99724.47;5054858;28;20275;-69
2023/07/17 07:53:36;;;;;;;12.88;4.45;;;;;;;38.21;24.88;99721.69;5054392;28;20270;-70
2023/07/17 07:56:02;;;;;;;9.88;4.20;;;;;;;38.38;24.46;99719.19;5054726;28;20633;-70
2023/07/17 07:58:31;;;;;;;39.38;4.97;;;;;;;38.17;24.38;99721.63;5054365;28;20254;-70
2023/07/17 08:00:57;;;;;;;3.63;3.33;;;;;;;37.91;24.38;99718.81;5054263;28;20243;-70
2023/07/17 08:03:24;;;;;;;6.40;3.83;;;;;;;38.02;24.33;99719.78;5054166;28;20656;-69
2023/07/17 08:05:50;;;;;;;3.90;3.60;;;;;;;38.33;23.75;99713.16;5060124;28;20614;-69
2023/07/17 08:08:17;;;;;;;5.90;3.70;;;;;;;38.44;24.43;99703.78;5074433;28;20192;-69
2023/07/17 08:10:44;;;;;;;3.75;3.28;;;;;;;38.40;24.74;99708.50;5074343;28;20289;-69
2023/07/17 08:13:10;;;;;;;6.40;3.30;;;;;;;38.80;23.98;99722.56;5073966;28;20188;-71
2023/07/17 08:15:38;;;;;;;4.57;3.40;;;;;;;38.85;23.92;99715.84;5072975;28;20623;-69
2023/07/17 08:18:05;;;;;;;6.55;3.90;;;;;;;39.05;23.19;99714.53;5074381;28;20196;-69
2023/07/17 08:20:32;;;;;;;6.30;3.65;;;;;;;39.03;23.27;99722.47;5074056;28;20192;-71
2023/07/17 08:22:58;;;;;;;5.68;3.55;;;;;;;38.94;23.44;99711.63;5073525;28;20257;-69
2023/07/17 08:25:25;;;;;;;11.90;4.43;;;;;;;38.77;23.63;99712.19;5074095;28;20574;-69
2023/07/17 08:27:52;;;;;;;3.67;3.25;;;;;;;38.56;23.66;99700.81;5074195;28;20235;-69
2023/07/17 08:30:19;;;;;;;7.72;4.30;;;;;;;38.86;23.77;99703.56;5073899;28;20192;-69
2023/07/17 08:32:47;;;;;;;8.02;3.95;;;;;;;38.59;24.08;99699.25;5074158;28;20191;-70
2023/07/17 08:35:14;;;;;;;14.23;7.43;;;;;;;38.79;23.83;99707.06;5073949;28;20285;-71
2023/07/17 08:37:40;;;;;;;9.50;6.97;;;;;;;38.91;24.09;99692.94;5074100;28;20196;-69
2023/07/17 08:40:10;;;;;;;6.00;4.20;;;;;;;39.30;24.40;99699.72;5073976;28;20195;-69
2023/07/17 08:42:38;;;;;;;5.07;3.63;;;;;;;39.61;23.07;99707.63;5073728;28;20277;-70
2023/07/17 08:45:09;;;;;;;5.97;3.97;;;;;;;39.49;22.85;99709.88;5073882;28;20269;-70
2023/07/17 08:47:37;;;;;;;5.22;3.80;;;;;;;39.41;23.82;99692.34;5073590;28;20604;-69
2023/07/17 08:50:08;;;;;;;11.13;4.15;;;;;;;39.61;23.50;99696.50;5073625;28;20250;-71
2023/07/17 08:52:35;;;;;;;6.97;3.63;;;;;;;39.47;23.27;99696.34;5073662;28;20260;-69
2023/07/17 08:55:01;;;;;;;5.22;3.80;;;;;;;39.53;23.00;99691.25;5073494;28;20561;-69
2023/07/17 08:57:33;;;;;;;7.65;3.95;;;;;;;39.67;22.93;99683.00;5073619;28;20192;-69
2023/07/17 09:00:00;;;;;;;3.90;3.60;;;;;;;39.79;23.25;99678.00;5073020;28;20188;-69
2023/07/17 09:02:28;;;;;;;3.80;3.53;;;;;;;40.02;22.94;99686.91;5073167;28;20200;-69
2023/07/17 09:04:55;;;;;;;31.02;5.40;;;;;;;40.10;22.40;99685.78;5073533;28;20192;-69
2023/07/17 09:07:23;;;;;;;4.93;3.90;;;;;;;40.18;22.83;99681.88;5073079;28;20192;-70
2023/07/17 09:10:15;;;;;;;5.97;3.60;;;;;;;40.00;22.61;99680.94;5072919;28;20258;-69
2023/07/17 09:12:43;;;;;;;10.57;4.20;;;;;;;39.70;22.70;99680.28;5073185;28;20219;-69
2023/07/17 09:15:14;;;;;;;4.82;4.00;;;;;;;39.87;22.52;99671.28;5072814;28;20192;-71
2023/07/17 09:17:41;;;;;;;5.68;4.25;;;;;;;40.03;22.92;99669.03;5073063;28;20195;-69
2023/07/17 09:20:10;;;;;;;13.73;4.50;;;;;;;40.01;22.46;99674.16;5072645;28;20203;-70
2023/07/17 09:22:38;;;;;;;3.83;3.65;;;;;;;40.05;22.70;99672.19;5072504;28;20222;-69
2023/07/17 09:25:06;;;;;;;12.35;4.65;;;;;;;40.25;22.94;99659.63;5072886;28;20192;-69
2023/07/17 09:27:43;;;;;;;4.82;3.78;;;;;;;40.18;22.70;99664.38;5072802;28;20228;-69
2023/07/17 09:30:11;;;;;;;9.35;4.30;;;;;;;39.88;23.35;99661.75;5073105;28;20188;-70
2023/07/17 09:32:38;;;;;;;7.20;4.10;;;;;;;40.09;23.29;99655.53;5072432;28;20226;-69
2023/07/17 09:35:06;;;;;;;6.35;4.97;;;;;;;40.17;23.40;99646.81;5072884;28;20285;-70
2023/07/17 09:37:34;;;;;;;25.98;6.50;;;;;;;40.34;22.65;99648.94;5072503;28;20192;-69
2023/07/17 09:40:07;;;;;;;8.30;4.65;;;;;;;40.36;23.05;99648.56;5072925;28;20335;-69
2023/07/17 09:42:33;;;;;;;4.15;3.85;;;;;;;40.38;22.95;99641.41;5072247;28;20188;-70
2023/07/17 09:45:02;;;;;;;7.22;4.22;;;;;;;40.55;22.03;99639.91;5072671;28;20196;-70
2023/07/17 09:47:30;;;;;;;4.45;4.15;;;;;;;40.62;22.01;99635.16;5072097;28;20656;-70
2023/07/17 09:49:58;;;;;;;4.47;4.10;;;;;;;40.54;22.50;99643.88;5071963;28;20626;-70
2023/07/17 09:52:26;;;;;;;8.55;4.57;;;;;;;40.38;22.34;99638.63;5072397;28;20220;-70
2023/07/17 09:54:53;;;;;;;6.05;4.43;;;;;;;40.44;22.62;99636.25;5072151;28;20192;-69
2023/07/17 09:57:28;;;;;;;4.53;4.22;;;;;;;40.47;22.42;99632.69;5071809;28;20616;-69
2023/07/17 09:59:57;;;;;;;5.90;4.50;;;;;;;40.30;23.10;99627.84;5071996;28;20184;-69
2023/07/17 10:02:29;;;;;;;9.57;4.40;;;;;;;40.28;22.70;99630.22;5072226;28;20283;-70
2023/07/17 10:04:59;;;;;;;4.85;4.22;;;;;;;40.25;22.97;99626.22;5072025;28;20237;-69
2023/07/17 10:07:27;;;;;;;4.68;4.32;;;;;;;40.34;22.53;99617.53;5071934;28;20200;-70
2023/07/17 10:09:55;;;;;;;4.72;4.40;;;;;;;40.54;22.79;99622.38;5072101;28;20264;-70
2023/07/17 10:12:23;;;;;;;6.93;5.00;;;;;;;40.10;23.03;99612.59;5072089;28;20219;-69
2023/07/17 10:14:50;;;;;;;4.72;4.40;;;;;;;40.23;22.85;99617.47;5071604;28;20192;-70
2023/07/17 10:17:24;;;;;;;9.45;5.40;;;;;;;40.16;23.37;99609.03;5071795;28;20637;-69
2023/07/17 10:19:50;;;;;;;7.30;5.10;;;;;;;40.21;23.51;99600.34;5071825;28;20725;-69
2023/07/17 10:22:17;;;;;;;6.82;4.80;;;;;;;40.39;23.55;99603.22;5071929;28;20646;-70
2023/07/17 10:24:44;;;;;;;5.28;4.80;;;;;;;40.39;23.09;99592.88;5071617;28;20192;-70
2023/07/17 10:27:11;;;;;;;9.93;5.22;;;;;;;40.32;23.14;99598.41;5071876;28;20243;-70
2023/07/17 10:29:43;;;;;;;6.25;5.10;;;;;;;40.18;23.64;99589.97;5072134;28;20195;-70
2023/07/17 10:32:13;;;;;;;8.88;5.35;;;;;;;40.35;23.92;99591.25;5071892;28;20261;-70
2023/07/17 10:34:50;;;;;;;6.22;5.70;;;;;;;40.54;24.02;99577.78;5071566;28;20227;-70
2023/07/17 10:37:40;;;;;;;9.98;6.00;;;;;;;40.56;23.79;99569.84;5072118;28;20194;-69
2023/07/17 10:40:08;;;;;;;5.80;5.40;;;;;;;40.65;23.55;99573.09;5070913;28;20271;-69
2023/07/17 10:42:35;;;;;;;5.13;4.72;;;;;;;40.70;23.23;99575.47;5071538;28;20204;-70
2023/07/17 10:45:13;;;;;;;7.75;5.53;;;;;;;40.76;24.00;99567.53;5071230;28;20671;-70
2023/07/17 10:47:39;;;;;;;6.15;5.50;;;;;;;40.92;23.59;99566.00;5071717;28;20332;-70
2023/07/17 10:50:07;;;;;;;5.78;5.30;;;;;;;40.38;24.11;99560.63;5071687;28;20200;-70
2023/07/17 10:52:34;;;;;;;7.68;5.05;;;;;;;40.50;24.12;99556.72;5071356;28;20219;-70
2023/07/17 10:55:04;;;;;;;8.23;5.45;;;;;;;40.73;23.70;99549.63;5071659;28;20188;-70
2023/07/17 10:57:31;;;;;;;6.40;5.45;;;;;;;40.73;23.93;99552.41;5071779;28;20195;-69
2023/07/17 10:59:58;;;;;;;6.28;5.88;;;;;;;40.40;24.26;99549.09;5071804;28;20204;-70
2023/07/17 11:02:27;;;;;;;5.82;5.53;;;;;;;40.51;23.97;99556.31;5071568;28;20253;-70
2023/07/17 11:04:54;;;;;;;7.38;5.60;;;;;;;40.41;24.08;99548.72;5071549;28;20195;-70
2023/07/17 11:07:21;;;;;;;6.32;5.55;;;;;;;40.37;24.17;99545.13;5053161;28;20189;-70
2023/07/17 11:09:48;;;;;;;8.65;5.43;;;;;;;40.49;24.33;99549.50;5051132;28;20193;-69
2023/07/17 11:12:15;;;;;;;6.88;6.22;;;;;;;40.48;24.01;99548.72;5051499;28;20619;-70
2023/07/17 11:14:42;;;;;;;8.05;5.65;;;;;;;40.44;24.11;99539.56;5051254;28;20189;-71
2023/07/17 11:17:10;;;;;;;6.75;5.90;;;;;;;40.47;24.33;99543.56;5051139;28;20201;-70
2023/07/17 11:19:38;;;;;;;6.93;5.45;;;;;;;40.31;24.49;99540.31;5051168;28;20590;-69
2023/07/17 11:22:06;;;;;;;8.77;6.43;;;;;;;39.94;25.10;99543.31;5051077;28;20270;-70
2023/07/17 11:24:32;;;;;;;10.07;6.10;;;;;;;40.11;25.16;99547.38;5051045;28;20203;-69
2023/07/17 11:26:59;;;;;;;7.55;5.93;;;;;;;40.06;25.11;99540.19;5051213;28;20200;-69
2023/07/17 11:29:26;;;;;;;6.88;5.88;;;;;;;39.80;25.35;99526.53;5050842;28;20197;-69
2023/07/17 11:31:59;;;;;;;9.52;5.80;;;;;;;39.42;25.57;99531.81;5051217;28;20645;-69